createdAt,value
2016-09-21T13:24:55.590Z,21.9
2016-09-21T13:25:05.585Z,21.8
2016-09-21T13:25:15.579Z,21.8
2016-09-21T13:25:25.577Z,22
2016-09-21T13:25:35.573Z,22
2016-09-21T13:25:45.567Z,21.9
2016-09-21T13:25:55.563Z,22
2016-09-21T13:26:05.559Z,22
2016-09-21T13:26:15.553Z,21.9
2016-09-21T13:26:25.551Z,21.9
2016-09-21T13:26:35.545Z,21.9
2016-09-21T13:26:45.542Z,21.9
2016-09-21T13:26:55.538Z,21.9
2016-09-21T13:27:05.531Z,21.9
2016-09-21T13:27:15.526Z,21.8
2016-09-21T13:27:25.525Z,21.8
2016-09-21T13:27:35.519Z,21.8
2016-09-21T13:27:45.516Z,21.8
2016-09-21T13:27:55.510Z,21.8
2016-09-21T13:28:05.512Z,21.8
2016-09-21T13:28:15.502Z,21.8
2016-09-21T13:28:25.497Z,21.8
2016-09-21T13:28:35.498Z,21.8
2016-09-21T13:28:45.490Z,21.8
2016-09-21T13:28:55.484Z,21.7
2016-09-21T13:29:05.562Z,21.8
2016-09-21T13:29:15.563Z,21.8
2016-09-21T13:29:25.538Z,21.8
2016-09-21T13:29:35.534Z,21.8
2016-09-21T13:29:45.463Z,21.8
2016-09-21T13:29:55.458Z,21.8
2016-09-21T13:30:05.453Z,21.7
2016-09-21T13:30:15.449Z,21.7
2016-09-21T13:30:25.447Z,21.8
2016-09-21T13:30:35.440Z,21.8
2016-09-21T13:30:45.438Z,21.7
2016-09-21T13:30:55.433Z,21.7
2016-09-21T13:31:05.499Z,21.7
2016-09-21T13:31:15.484Z,21.7
2016-09-21T13:31:25.486Z,21.7
2016-09-21T13:31:35.474Z,21.7
2016-09-21T13:31:45.479Z,21.7
2016-09-21T13:31:55.407Z,21.6
2016-09-21T13:32:05.403Z,21.6
2016-09-21T13:32:15.398Z,21.7
2016-09-21T13:32:25.393Z,21.7
2016-09-21T13:32:35.389Z,21.8
2016-09-21T13:32:45.385Z,21.7
2016-09-21T13:32:55.380Z,21.6
2016-09-21T13:33:05.376Z,21.7
2016-09-21T13:33:15.371Z,21.7
2016-09-21T13:33:25.367Z,21.7
2016-09-21T13:33:35.364Z,21.7
2016-09-21T13:33:45.357Z,21.7
2016-09-21T13:33:55.353Z,21.7
2016-09-21T13:34:05.348Z,21.7
2016-09-21T13:34:15.345Z,21.8
2016-09-21T13:34:25.340Z,21.7
2016-09-21T13:34:35.335Z,21.6
2016-09-21T13:34:45.332Z,21.6
2016-09-21T13:34:55.328Z,21.6
2016-09-21T13:35:05.323Z,21.5
2016-09-21T13:35:15.318Z,21.6
2016-09-21T13:35:25.315Z,21.6
2016-09-21T13:35:35.312Z,21.6
2016-09-21T13:35:45.306Z,21.6
2016-09-21T13:35:55.301Z,21.6
2016-09-21T13:36:05.297Z,21.6
2016-09-21T13:36:15.296Z,21.6
2016-09-21T13:36:25.288Z,21.6
2016-09-21T13:36:35.284Z,21.5
2016-09-21T13:36:45.279Z,21.6
2016-09-21T13:36:55.481Z,21.6
2016-09-21T13:37:05.271Z,21.6
2016-09-21T13:37:15.266Z,21.6
2016-09-21T13:37:25.263Z,21.6
2016-09-21T13:37:35.259Z,21.6
2016-09-21T13:37:45.252Z,21.6
2016-09-21T13:37:55.248Z,21.5
2016-09-21T13:38:05.246Z,21.6
2016-09-21T13:38:15.257Z,21.6
2016-09-21T13:38:25.237Z,21.6
2016-09-21T13:38:35.231Z,21.7
2016-09-21T13:38:45.227Z,21.7
2016-09-21T13:38:55.223Z,21.7
2016-09-21T13:39:05.217Z,21.7
2016-09-21T13:39:15.215Z,21.7
2016-09-21T13:39:25.209Z,21.7
2016-09-21T13:39:35.203Z,21.7
2016-09-21T13:39:45.200Z,21.7
2016-09-21T13:39:55.195Z,21.6
2016-09-21T13:40:05.192Z,21.7
2016-09-21T13:40:15.188Z,21.7
2016-09-21T13:40:25.184Z,21.6
2016-09-21T13:40:35.186Z,21.7
2016-09-21T13:40:45.174Z,21.7
2016-09-21T13:40:55.170Z,21.7
2016-09-21T13:41:05.164Z,21.7
2016-09-21T13:41:15.160Z,21.7
2016-09-21T13:41:25.155Z,21.7
2016-09-21T13:41:35.153Z,21.8
2016-09-21T13:41:45.147Z,21.7
2016-09-21T13:41:55.154Z,21.7
2016-09-21T13:42:05.139Z,21.6
2016-09-21T13:42:15.133Z,21.6
2016-09-21T13:42:25.130Z,21.6
2016-09-21T13:42:35.125Z,21.6
2016-09-21T13:42:45.121Z,21.6
2016-09-21T13:42:55.117Z,21.6
2016-09-21T13:43:05.112Z,21.6
2016-09-21T13:43:15.108Z,21.6
2016-09-21T13:43:25.104Z,21.6
2016-09-21T13:43:35.099Z,21.6
2016-09-21T13:43:45.095Z,21.6
2016-09-21T13:43:55.090Z,21.6
2016-09-21T13:44:05.086Z,21.6
2016-09-21T13:44:15.083Z,21.6
2016-09-21T13:44:25.078Z,21.5
2016-09-21T13:44:35.073Z,21.6
2016-09-21T13:44:45.070Z,21.6
2016-09-21T13:44:55.064Z,21.5
2016-09-21T13:45:05.060Z,21.5
2016-09-21T13:45:15.055Z,21.5
2016-09-21T13:45:25.051Z,21.5
2016-09-21T13:45:35.047Z,21.5
2016-09-21T13:45:45.042Z,21.5
2016-09-21T13:45:55.037Z,21.5
2016-09-21T13:46:05.035Z,21.5
2016-09-21T13:46:15.028Z,21.6
2016-09-21T13:46:25.024Z,21.5
2016-09-21T13:46:35.019Z,21.5
2016-09-21T13:46:45.016Z,21.5
2016-09-21T13:46:55.012Z,21.7
2016-09-21T13:47:05.007Z,21.6
2016-09-21T13:47:15.006Z,21.7
2016-09-21T13:47:24.999Z,21.7
2016-09-21T13:47:34.993Z,21.7
2016-09-21T13:47:44.990Z,21.7
2016-09-21T13:47:54.985Z,21.7
2016-09-21T13:48:04.981Z,21.7
2016-09-21T13:48:14.977Z,21.6
2016-09-21T13:48:24.970Z,21.7
2016-09-21T13:48:34.967Z,21.6
2016-09-21T13:48:44.965Z,21.7
2016-09-21T13:48:54.959Z,21.7
2016-09-21T13:49:04.958Z,21.7
2016-09-21T13:49:14.949Z,21.7
2016-09-21T13:49:24.945Z,21.7
2016-09-21T13:49:34.941Z,21.7
2016-09-21T13:49:44.936Z,21.7
2016-09-21T13:49:54.933Z,21.7
2016-09-21T13:50:04.928Z,21.6
2016-09-21T13:50:14.929Z,21.6
2016-09-21T13:50:24.919Z,21.7
2016-09-21T13:50:34.914Z,21.6
2016-09-21T13:50:44.910Z,21.6
2016-09-21T13:50:54.905Z,21.5
2016-09-21T13:51:04.901Z,21.5
2016-09-21T13:51:14.898Z,21.6
2016-09-21T13:51:24.893Z,21.6
2016-09-21T13:51:34.888Z,21.6
2016-09-21T13:51:44.885Z,21.6
2016-09-21T13:51:54.879Z,21.6
2016-09-21T13:52:04.876Z,21.6
2016-09-21T13:52:14.873Z,21.6
2016-09-21T13:52:24.867Z,21.6
2016-09-21T13:52:34.861Z,21.6
2016-09-21T13:52:44.858Z,21.5
2016-09-21T13:52:54.852Z,21.6
2016-09-21T13:53:04.849Z,21.6
2016-09-21T13:53:14.843Z,21.6
2016-09-21T13:53:24.840Z,21.6
2016-09-21T13:53:34.835Z,21.6
2016-09-21T13:53:44.837Z,21.6
2016-09-21T13:53:54.826Z,21.7
2016-09-21T13:54:04.822Z,21.5
2016-09-21T13:54:14.817Z,21.6
2016-09-21T13:54:24.815Z,21.6
2016-09-21T13:54:34.808Z,21.6
2016-09-21T13:54:44.803Z,21.6
2016-09-21T13:54:54.836Z,21.7
2016-09-21T13:55:04.796Z,21.6
2016-09-21T13:55:14.791Z,21.6
2016-09-21T13:55:24.787Z,21.6
2016-09-21T13:55:34.781Z,21.7
2016-09-21T13:55:44.779Z,21.6
2016-09-21T13:55:54.774Z,21.5
2016-09-21T13:56:04.769Z,21.5
2016-09-21T13:56:14.764Z,21.5
2016-09-21T13:56:24.760Z,21.5
2016-09-21T13:56:44.753Z,21.5
2016-09-21T13:56:54.747Z,21.5
2016-09-21T13:57:04.743Z,21.4
2016-09-21T13:57:14.739Z,21.5
2016-09-21T13:57:24.735Z,21.5
2016-09-21T13:57:34.730Z,21.5
2016-09-21T13:57:44.725Z,21.5
2016-09-21T13:57:54.720Z,21.5
2016-09-21T13:58:04.717Z,21.6
2016-09-21T13:58:14.711Z,21.6
2016-09-21T13:58:24.707Z,21.6
2016-09-21T13:58:34.703Z,21.6
2016-09-21T13:58:44.697Z,21.5
2016-09-21T13:58:54.693Z,21.6
2016-09-21T13:59:04.690Z,21.5
2016-09-21T13:59:14.685Z,21.6
2016-09-21T13:59:24.681Z,21.5
2016-09-21T13:59:34.676Z,21.5
2016-09-21T13:59:44.672Z,21.5
2016-09-21T13:59:54.666Z,21.5
2016-09-21T14:00:04.662Z,21.4
2016-09-21T14:00:14.659Z,21.4
2016-09-21T14:00:24.655Z,21.5
2016-09-21T14:00:34.649Z,21.5
2016-09-21T14:00:44.647Z,21.5
2016-09-21T14:00:54.641Z,21.4
2016-09-21T14:01:04.634Z,21.4
2016-09-21T14:01:14.630Z,21.4
2016-09-21T14:01:24.628Z,21.4
2016-09-21T14:01:34.630Z,21.4
2016-09-21T14:01:44.619Z,21.4
2016-09-21T14:01:54.614Z,21.3
2016-09-21T14:02:04.610Z,21.4
2016-09-21T14:02:14.605Z,21.5
2016-09-21T14:02:24.601Z,21.4
2016-09-21T14:02:34.596Z,21.4
2016-09-21T14:02:44.592Z,21.3
2016-09-21T14:02:54.594Z,21.3
2016-09-21T14:03:04.582Z,21.3
2016-09-21T14:03:14.578Z,21.3
2016-09-21T14:03:24.574Z,21.3
2016-09-21T14:03:34.571Z,21.3
2016-09-21T14:03:44.565Z,21.3
2016-09-21T14:03:54.562Z,21.3
2016-09-21T14:04:04.558Z,21.2
2016-09-21T14:04:14.553Z,21.4
2016-09-21T14:04:24.548Z,21.4
2016-09-21T14:04:34.546Z,21.4
2016-09-21T14:04:44.539Z,21.3
2016-09-21T14:04:54.535Z,21.3
2016-09-21T14:05:04.531Z,21.2
2016-09-21T14:05:14.525Z,21.2
2016-09-21T14:05:24.523Z,21.3
2016-09-21T14:05:34.518Z,21.3
2016-09-21T14:05:44.512Z,21.3
2016-09-21T14:05:54.509Z,21.3
2016-09-21T14:06:04.504Z,21.2
2016-09-21T14:06:14.499Z,21.3
2016-09-21T14:06:24.497Z,21.3
2016-09-21T14:06:34.490Z,21.2
2016-09-21T14:06:44.485Z,21.3
2016-09-21T14:06:54.483Z,21.4
2016-09-21T14:07:04.476Z,21.3
2016-09-21T14:07:14.473Z,21.4
2016-09-21T14:07:24.469Z,21.3
2016-09-21T14:07:34.464Z,21.3
2016-09-21T14:07:44.460Z,21.3
2016-09-21T14:07:54.455Z,21.3
2016-09-21T14:08:04.450Z,21.3
2016-09-21T14:08:14.446Z,21.3
2016-09-21T14:08:24.441Z,21.3
2016-09-21T14:08:34.437Z,21.3
2016-09-21T14:08:44.433Z,21.3
2016-09-21T14:08:54.428Z,21.3
2016-09-21T14:09:04.424Z,21.3
2016-09-21T14:09:14.417Z,21.3
2016-09-21T14:09:24.415Z,21.3
2016-09-21T14:09:34.411Z,21.3
2016-09-21T14:09:44.406Z,21.3
2016-09-21T14:09:54.401Z,21.3
2016-09-21T14:10:04.397Z,21.4
2016-09-21T14:10:14.394Z,21.4
2016-09-21T14:10:24.390Z,21.4
2016-09-21T14:10:34.383Z,21.4
2016-09-21T14:10:44.384Z,21.4
2016-09-21T14:10:54.375Z,21.4
2016-09-21T14:11:04.371Z,21.3
2016-09-21T14:11:14.366Z,21.3
2016-09-21T14:11:24.362Z,21.3
2016-09-21T14:11:34.357Z,21.3
2016-09-21T14:11:44.353Z,21.3
2016-09-21T14:11:54.348Z,21.3
2016-09-21T14:12:04.345Z,21.4
2016-09-21T14:12:14.341Z,21.4
2016-09-21T14:12:24.335Z,21.4
2016-09-21T14:12:34.332Z,21.3
2016-09-21T14:12:44.327Z,21.3
2016-09-21T14:12:54.322Z,21.3
2016-09-21T14:13:04.318Z,21.4
2016-09-21T14:13:14.312Z,21.4
2016-09-21T14:13:24.308Z,21.3
2016-09-21T14:13:34.305Z,21.4
2016-09-21T14:13:44.300Z,21.3
2016-09-21T14:13:54.296Z,21.3
2016-09-21T14:14:04.290Z,21.3
2016-09-21T14:14:14.286Z,21.4
2016-09-21T14:14:24.282Z,21.4
2016-09-21T14:14:34.277Z,21.4
2016-09-21T14:14:44.273Z,21.4
2016-09-21T14:14:54.269Z,21.4
2016-09-21T14:15:04.264Z,21.3
2016-09-21T14:15:14.259Z,21.3
2016-09-21T14:15:24.255Z,21.3
2016-09-21T14:15:34.250Z,21.2
2016-09-21T14:15:44.246Z,21.4
2016-09-21T14:15:54.241Z,21.2
2016-09-21T14:16:04.238Z,21.4
2016-09-21T14:16:14.234Z,21.3
2016-09-21T14:16:24.228Z,21.4
2016-09-21T14:16:34.225Z,21.3
2016-09-21T14:16:44.220Z,21.3
2016-09-21T14:16:54.214Z,21.4
2016-09-21T14:17:04.211Z,21.3
2016-09-21T14:17:14.206Z,21.3
2016-09-21T14:17:24.202Z,21.3
2016-09-21T14:17:34.197Z,21.3
2016-09-21T14:17:44.193Z,21.3
2016-09-21T14:17:54.189Z,21.3
2016-09-21T14:18:04.190Z,21.4
2016-09-21T14:18:14.179Z,21.3
2016-09-21T14:18:24.175Z,21.3
2016-09-21T14:18:34.170Z,21.3
2016-09-21T14:18:44.167Z,21.2
2016-09-21T14:18:54.163Z,21.4
2016-09-21T14:19:04.157Z,21.3
2016-09-21T14:19:14.153Z,21.3
2016-09-21T14:19:24.149Z,21.1
2016-09-21T14:19:34.144Z,21.2
2016-09-21T14:19:44.140Z,21.2
2016-09-21T14:19:54.135Z,21.2
2016-09-21T14:20:04.131Z,21.2
2016-09-21T14:20:14.125Z,21.3
2016-09-21T14:20:24.121Z,21.3
2016-09-21T14:20:34.118Z,21.3
2016-09-21T14:20:44.113Z,21.3
2016-09-21T14:20:54.108Z,21.3
2016-09-21T14:21:04.104Z,21.3
2016-09-21T14:21:14.099Z,21.4
2016-09-21T14:21:24.094Z,21.4
2016-09-21T14:21:34.090Z,21.4
2016-09-21T14:21:44.086Z,21.3
2016-09-21T14:21:54.082Z,21.4
2016-09-21T14:22:04.078Z,21.4
2016-09-21T14:22:14.073Z,21.3
2016-09-21T14:22:24.068Z,21.4
2016-09-21T14:22:34.065Z,21.3
2016-09-21T14:22:44.059Z,21.3
2016-09-21T14:22:54.056Z,21.4
2016-09-21T14:23:04.050Z,21.3
2016-09-21T14:23:14.046Z,21.4
2016-09-21T14:23:24.042Z,21.4
2016-09-21T14:23:34.038Z,21.4
2016-09-21T14:23:44.033Z,21.4
2016-09-21T14:23:54.028Z,21.3
2016-09-21T14:24:04.024Z,21.3
2016-09-21T14:24:14.025Z,21.3
2016-09-21T14:24:24.015Z,21.3
2016-09-21T14:24:34.011Z,21.4
2016-09-21T14:24:44.006Z,21.3
2016-09-21T14:24:54.002Z,21.2
2016-09-21T14:25:03.998Z,21.3
2016-09-21T14:25:13.992Z,21.3
2016-09-21T14:25:23.989Z,21.4
2016-09-21T14:25:33.983Z,21.4
2016-09-21T14:25:43.979Z,21.3
2016-09-21T14:25:53.975Z,21.4
2016-09-21T14:26:03.969Z,21.3
2016-09-21T14:26:13.965Z,21.3
2016-09-21T14:26:23.962Z,21.4
2016-09-21T14:26:33.958Z,21.4
2016-09-21T14:26:43.952Z,21.4
2016-09-21T14:26:53.947Z,21.3
2016-09-21T14:27:03.942Z,21.3
2016-09-21T14:27:13.942Z,21.4
2016-09-21T14:27:23.935Z,21.4
2016-09-21T14:27:33.930Z,21.4
2016-09-21T14:27:43.925Z,21.3
2016-09-21T14:27:53.920Z,21.4
2016-09-21T14:28:03.916Z,21.3
2016-09-21T14:28:13.912Z,21.3
2016-09-21T14:28:23.906Z,21.3
2016-09-21T14:28:33.903Z,21.3
2016-09-21T14:28:43.899Z,21.3
2016-09-21T14:28:53.894Z,21.3
2016-09-21T14:29:03.891Z,21.3
2016-09-21T14:29:13.884Z,21.3
2016-09-21T14:29:23.881Z,21.3
2016-09-21T14:29:33.876Z,21.3
2016-09-21T14:29:43.872Z,21.3
2016-09-21T14:29:53.868Z,21.2
2016-09-21T14:30:03.864Z,21.2
2016-09-21T14:30:13.858Z,21.1
2016-09-21T14:30:23.858Z,21.2
2016-09-21T14:30:33.849Z,21.1
2016-09-21T14:30:43.845Z,21.1
2016-09-21T14:30:53.852Z,21.1
2016-09-21T14:31:03.836Z,21.2
2016-09-21T14:31:13.832Z,21.2
2016-09-21T14:31:23.828Z,21.1
2016-09-21T14:31:33.823Z,21.2
2016-09-21T14:31:43.817Z,21.1
2016-09-21T14:31:53.814Z,21.2
2016-09-21T14:32:03.809Z,21.2
2016-09-21T14:32:13.805Z,21.2
2016-09-21T14:32:23.799Z,21.2
2016-09-21T14:32:33.795Z,21.2
2016-09-21T14:32:43.792Z,21.2
2016-09-21T14:32:53.787Z,21.2
2016-09-21T14:33:03.783Z,21.1
2016-09-21T14:33:13.778Z,21.1
2016-09-21T14:33:23.774Z,21.1
2016-09-21T14:33:33.770Z,21.2
2016-09-21T14:33:43.764Z,21.1
2016-09-21T14:33:53.761Z,21.1
2016-09-21T14:34:03.758Z,21.2
2016-09-21T14:34:13.752Z,21.1
2016-09-21T14:34:23.747Z,21.1
2016-09-21T14:34:33.742Z,21.1
2016-09-21T14:34:43.738Z,21.1
2016-09-21T14:34:53.734Z,21.1
2016-09-21T14:35:03.729Z,21.1
2016-09-21T14:35:13.724Z,21.2
2016-09-21T14:35:23.720Z,21.2
2016-09-21T14:35:33.715Z,21.1
2016-09-21T14:35:43.711Z,21.1
2016-09-21T14:35:53.706Z,21.1
2016-09-21T14:36:03.702Z,21.1
2016-09-21T14:36:13.697Z,21.2
2016-09-21T14:36:23.692Z,21.1
2016-09-21T14:36:33.688Z,21.2
2016-09-21T14:36:43.684Z,21.1
2016-09-21T14:36:53.679Z,21.1
2016-09-21T14:37:03.675Z,21.1
2016-09-21T14:37:13.670Z,21.1
2016-09-21T14:37:23.666Z,21.1
2016-09-21T14:37:33.662Z,21.1
2016-09-21T14:37:43.655Z,21.2
2016-09-21T14:37:53.653Z,21.1
2016-09-21T14:38:03.648Z,21.2
2016-09-21T14:38:13.643Z,21.2
2016-09-21T14:38:23.639Z,21.1
2016-09-21T14:38:33.634Z,21.2
2016-09-21T14:38:43.630Z,21.2
2016-09-21T14:38:53.628Z,21.1
2016-09-21T14:39:03.621Z,21.1
2016-09-21T14:39:13.618Z,21.1
2016-09-21T14:39:23.613Z,21.2
2016-09-21T14:39:33.609Z,21.1
2016-09-21T14:39:43.605Z,21.1
2016-09-21T14:39:53.600Z,21.2
2016-09-21T14:40:03.596Z,21.1
2016-09-21T14:40:13.591Z,21.2
2016-09-21T14:40:23.586Z,21.1
2016-09-21T14:40:33.581Z,21.1
2016-09-21T14:40:43.577Z,21.2
2016-09-21T14:40:53.574Z,21.2
2016-09-21T14:41:03.569Z,21.1
2016-09-21T14:41:13.562Z,21.1
2016-09-21T14:41:23.559Z,21.1
2016-09-21T14:41:33.556Z,21.2
2016-09-21T14:41:43.550Z,21.2
2016-09-21T14:41:53.546Z,21.1
2016-09-21T14:42:03.541Z,21.1
2016-09-21T14:42:13.540Z,21.1
2016-09-21T14:42:23.532Z,21.1
2016-09-21T14:42:33.527Z,21.1
2016-09-21T14:42:43.524Z,21.1
2016-09-21T14:42:53.519Z,21.2
2016-09-21T14:43:03.514Z,21.1
2016-09-21T14:43:13.510Z,21
2016-09-21T14:43:23.506Z,21.2
2016-09-21T14:43:33.500Z,21.1
2016-09-21T14:43:43.496Z,21.2
2016-09-21T14:43:53.492Z,21.1
2016-09-21T14:44:03.487Z,21.1
2016-09-21T14:44:13.483Z,21.1
2016-09-21T14:44:23.478Z,21.1
2016-09-21T14:44:33.474Z,21.1
2016-09-21T14:44:43.470Z,21.1
2016-09-21T14:44:53.465Z,21.1
2016-09-21T14:45:03.461Z,21.2
2016-09-21T14:45:13.456Z,21.1
2016-09-21T14:45:23.451Z,21.1
2016-09-21T14:45:33.449Z,21.2
2016-09-21T14:45:43.442Z,21.1
2016-09-21T14:45:53.440Z,21.1
2016-09-21T14:46:03.435Z,21.1
2016-09-21T14:46:13.431Z,21.1
2016-09-21T14:46:23.425Z,21.1
2016-09-21T14:46:33.421Z,21.1
2016-09-21T14:46:43.417Z,21.1
2016-09-21T14:46:53.414Z,21.1
2016-09-21T14:47:03.407Z,21.1
2016-09-21T14:47:13.403Z,21.1
2016-09-21T14:47:23.399Z,21.1
2016-09-21T14:47:33.393Z,21.1
2016-09-21T14:47:43.388Z,21.2
2016-09-21T14:47:53.383Z,21.1
2016-09-21T14:48:03.380Z,21.1
2016-09-21T14:48:13.376Z,21.1
2016-09-21T14:48:23.370Z,21.1
2016-09-21T14:48:33.366Z,21.2
2016-09-21T14:48:43.363Z,21.2
2016-09-21T14:48:53.358Z,21.1
2016-09-21T14:49:03.353Z,21.1
2016-09-21T14:49:13.348Z,21.1
2016-09-21T14:49:23.344Z,21.1
2016-09-21T14:49:33.339Z,21.1
2016-09-21T14:49:43.334Z,21.1
2016-09-21T14:49:53.330Z,21
2016-09-21T14:50:03.327Z,21
2016-09-21T14:50:13.322Z,21.1
2016-09-21T14:50:23.319Z,21
2016-09-21T14:50:33.312Z,21.1
2016-09-21T14:50:43.310Z,21
2016-09-21T14:50:53.305Z,21
2016-09-21T14:51:03.299Z,21
2016-09-21T14:51:13.295Z,21
2016-09-21T14:51:23.291Z,21
2016-09-21T14:51:33.285Z,20.9
2016-09-21T14:51:43.282Z,20.9
2016-09-21T14:51:53.277Z,20.9
2016-09-21T14:52:03.273Z,21
2016-09-21T14:52:13.269Z,21
2016-09-21T14:52:23.264Z,21
2016-09-21T14:52:33.259Z,21
2016-09-21T14:52:43.256Z,21
2016-09-21T14:52:53.250Z,20.9
2016-09-21T14:53:03.245Z,21
2016-09-21T14:53:13.240Z,21
2016-09-21T14:53:23.236Z,21
2016-09-21T14:53:33.233Z,20.9
2016-09-21T14:53:43.228Z,21
2016-09-21T14:53:53.222Z,21
2016-09-21T14:54:03.219Z,21
2016-09-21T14:54:13.291Z,21
2016-09-21T14:54:23.208Z,21
2016-09-21T14:54:33.206Z,21
2016-09-21T14:54:43.201Z,21
2016-09-21T14:54:53.197Z,21
2016-09-21T14:55:03.192Z,20.9
2016-09-21T14:55:13.187Z,21
2016-09-21T14:55:23.182Z,21
2016-09-21T14:55:33.180Z,21
2016-09-21T14:55:43.175Z,20.9
2016-09-21T14:55:53.169Z,20.9
2016-09-21T14:56:03.295Z,20.9
2016-09-21T14:56:13.161Z,21
2016-09-21T14:56:23.156Z,20.9
2016-09-21T14:56:33.153Z,20.9
2016-09-21T14:56:43.149Z,20.9
2016-09-21T14:56:53.144Z,20.9
2016-09-21T14:57:03.139Z,20.9
2016-09-21T14:57:13.133Z,20.9
2016-09-21T14:57:23.128Z,20.9
2016-09-21T14:57:33.125Z,20.9
2016-09-21T14:57:43.120Z,20.9
2016-09-21T14:57:53.117Z,20.9
2016-09-21T14:58:03.113Z,20.9
2016-09-21T14:58:13.111Z,20.9
2016-09-21T14:58:23.103Z,20.9
2016-09-21T14:58:33.097Z,20.9
2016-09-21T14:58:43.093Z,20.9
2016-09-21T14:58:53.089Z,21
2016-09-21T14:59:03.083Z,20.9
2016-09-21T14:59:13.080Z,21
2016-09-21T14:59:23.075Z,20.9
2016-09-21T14:59:33.070Z,20.9
2016-09-21T14:59:43.066Z,21
2016-09-21T14:59:53.065Z,20.9
2016-09-21T15:00:03.057Z,20.9
2016-09-21T15:00:13.053Z,20.9
2016-09-21T15:00:23.048Z,20.8
2016-09-21T15:00:33.044Z,20.9
2016-09-21T15:00:43.040Z,20.8
2016-09-21T15:00:53.035Z,20.8
2016-09-21T15:01:03.031Z,20.8
2016-09-21T15:01:13.027Z,20.9
2016-09-21T15:01:23.022Z,20.8
2016-09-21T15:01:33.018Z,20.8
2016-09-21T15:01:43.012Z,20.8
2016-09-21T15:01:53.008Z,20.8
2016-09-21T15:02:03.004Z,20.8
2016-09-21T15:02:13.000Z,20.7
2016-09-21T15:02:22.996Z,20.8
2016-09-21T15:02:32.990Z,20.8
2016-09-21T15:02:42.985Z,20.7
2016-09-21T15:02:52.982Z,20.7
2016-09-21T15:03:02.977Z,20.6
2016-09-21T15:03:12.971Z,20.7
2016-09-21T15:03:22.968Z,20.7
2016-09-21T15:03:32.963Z,20.7
2016-09-21T15:03:42.959Z,20.6
2016-09-21T15:03:52.954Z,20.7
2016-09-21T15:04:02.949Z,20.7
2016-09-21T15:04:12.945Z,20.7
2016-09-21T15:04:22.941Z,20.7
2016-09-21T15:04:32.937Z,20.7
2016-09-21T15:04:42.932Z,20.7
2016-09-21T15:04:52.927Z,20.6
2016-09-21T15:05:02.923Z,20.7
2016-09-21T15:05:12.918Z,20.7
2016-09-21T15:05:22.914Z,20.7
2016-09-21T15:05:32.909Z,20.7
2016-09-21T15:05:42.902Z,20.8
2016-09-21T15:05:52.900Z,20.7
2016-09-21T15:06:02.896Z,20.7
2016-09-21T15:06:12.890Z,20.7
2016-09-21T15:06:22.889Z,20.7
2016-09-21T15:06:32.884Z,20.7
2016-09-21T15:06:42.879Z,20.7
2016-09-21T15:06:52.874Z,20.7
2016-09-21T15:07:02.869Z,20.7
2016-09-21T15:07:12.865Z,20.7
2016-09-21T15:07:22.861Z,20.7
2016-09-21T15:07:32.856Z,20.7
2016-09-21T15:07:42.853Z,20.7
2016-09-21T15:07:52.846Z,20.7
2016-09-21T15:08:02.842Z,20.7
2016-09-21T15:08:12.838Z,20.6
2016-09-21T15:08:22.832Z,20.7
2016-09-21T15:08:32.828Z,20.7
2016-09-21T15:08:42.825Z,20.7
2016-09-21T15:08:52.821Z,20.7
2016-09-21T15:09:02.815Z,20.7
2016-09-21T15:09:12.809Z,20.7
2016-09-21T15:09:22.807Z,20.7
2016-09-21T15:09:32.805Z,20.7
2016-09-21T15:09:42.797Z,20.7
2016-09-21T15:09:52.792Z,20.7
2016-09-21T15:10:02.788Z,20.7
2016-09-21T15:10:12.782Z,20.7
2016-09-21T15:10:22.778Z,20.7
2016-09-21T15:10:32.774Z,20.7
2016-09-21T15:10:42.769Z,20.7
2016-09-21T15:10:52.766Z,20.7
2016-09-21T15:11:02.760Z,20.7
2016-09-21T15:11:12.756Z,20.7
2016-09-21T15:11:22.752Z,20.6
2016-09-21T15:11:32.749Z,20.7
2016-09-21T15:11:42.744Z,20.7
2016-09-21T15:11:52.738Z,20.7
2016-09-21T15:12:02.733Z,20.7
2016-09-21T15:12:12.729Z,20.7
2016-09-21T15:12:22.725Z,20.7
2016-09-21T15:12:32.720Z,20.7
2016-09-21T15:12:42.717Z,20.7
2016-09-21T15:12:52.714Z,20.7
2016-09-21T15:13:02.706Z,20.7
2016-09-21T15:13:12.703Z,20.7
2016-09-21T15:13:22.698Z,20.7
2016-09-21T15:13:32.694Z,20.7
2016-09-21T15:13:42.688Z,20.7
2016-09-21T15:13:52.684Z,20.7
2016-09-21T15:14:02.681Z,20.7
2016-09-21T15:14:12.675Z,20.7
2016-09-21T15:14:22.669Z,20.7
2016-09-21T15:14:32.665Z,20.7
2016-09-21T15:14:42.661Z,20.8
2016-09-21T15:14:52.656Z,20.8
2016-09-21T15:15:02.653Z,20.7
2016-09-21T15:15:12.648Z,20.7
2016-09-21T15:15:22.644Z,20.8
2016-09-21T15:15:32.639Z,20.9
2016-09-21T15:15:42.635Z,20.8
2016-09-21T15:15:52.631Z,20.8
2016-09-21T15:16:02.625Z,20.8
2016-09-21T15:16:12.621Z,20.8
2016-09-21T15:16:22.616Z,20.8
2016-09-21T15:16:32.612Z,20.8
2016-09-21T15:16:42.609Z,20.8
2016-09-21T15:16:52.603Z,20.9
2016-09-21T15:17:02.599Z,20.9
2016-09-21T15:17:12.593Z,20.8
2016-09-21T15:17:22.592Z,20.7
2016-09-21T15:17:32.585Z,20.8
2016-09-21T15:17:42.578Z,20.7
2016-09-21T15:17:52.575Z,20.8
2016-09-21T15:18:02.571Z,20.8
2016-09-21T15:18:12.567Z,20.7
2016-09-21T15:18:22.562Z,20.8
2016-09-21T15:18:32.558Z,20.8
2016-09-21T15:18:42.553Z,20.8
2016-09-21T15:18:52.550Z,20.8
2016-09-21T15:19:02.544Z,20.7
2016-09-21T15:19:12.540Z,20.9
2016-09-21T15:19:22.537Z,20.8
2016-09-21T15:19:32.531Z,20.8
2016-09-21T15:19:42.526Z,20.8
2016-09-21T15:19:52.521Z,20.8
2016-09-21T15:20:02.516Z,20.8
2016-09-21T15:20:12.513Z,20.8
2016-09-21T15:20:22.508Z,20.8
2016-09-21T15:20:32.503Z,20.8
2016-09-21T15:20:42.499Z,20.8
2016-09-21T15:20:52.494Z,20.7
2016-09-21T15:21:02.490Z,20.7
2016-09-21T15:21:12.485Z,20.8
2016-09-21T15:21:22.481Z,20.8
2016-09-21T15:21:32.476Z,20.8
2016-09-21T15:21:42.492Z,20.8
2016-09-21T15:21:52.466Z,20.8
2016-09-21T15:22:02.463Z,20.8
2016-09-21T15:22:12.457Z,20.8
2016-09-21T15:22:22.677Z,20.8
2016-09-21T15:22:32.449Z,20.8
2016-09-21T15:22:42.445Z,20.8
2016-09-21T15:22:52.441Z,20.8
2016-09-21T15:23:02.436Z,20.8
2016-09-21T15:23:12.430Z,20.8
2016-09-21T15:23:22.426Z,20.8
2016-09-21T15:23:32.573Z,20.8
2016-09-21T15:23:42.418Z,20.8
2016-09-21T15:23:52.412Z,20.8
2016-09-21T15:24:02.409Z,20.8
2016-09-21T15:24:12.403Z,20.8
2016-09-21T15:24:22.398Z,20.8
2016-09-21T15:24:32.394Z,20.8
2016-09-21T15:24:42.391Z,20.8
2016-09-21T15:24:52.385Z,20.8
2016-09-21T15:25:02.381Z,20.8
2016-09-21T15:25:12.376Z,20.8
2016-09-21T15:25:22.371Z,20.8
2016-09-21T15:25:32.368Z,20.8
2016-09-21T15:25:42.362Z,20.8
2016-09-21T15:25:52.358Z,20.9
2016-09-21T15:26:02.354Z,20.8
2016-09-21T15:26:12.348Z,20.8
2016-09-21T15:26:22.344Z,20.8
2016-09-21T15:26:32.339Z,20.8
2016-09-21T15:26:42.336Z,20.8
2016-09-21T15:26:52.331Z,20.8
2016-09-21T15:27:02.326Z,20.8
2016-09-21T15:27:12.322Z,20.8
2016-09-21T15:27:22.318Z,20.8
2016-09-21T15:27:32.314Z,20.8
2016-09-21T15:27:42.308Z,20.9
2016-09-21T15:27:52.304Z,20.8
2016-09-21T15:28:02.299Z,20.7
2016-09-21T15:28:12.296Z,20.8
2016-09-21T15:28:22.290Z,20.8
2016-09-21T15:28:32.286Z,20.8
2016-09-21T15:28:42.281Z,20.8
2016-09-21T15:28:52.277Z,20.8
2016-09-21T15:29:02.273Z,20.8
2016-09-21T15:29:12.272Z,20.6
2016-09-21T15:29:22.263Z,20.6
2016-09-21T15:29:32.259Z,20.7
2016-09-21T15:29:42.253Z,20.7
2016-09-21T15:29:52.250Z,20.7
2016-09-21T15:30:02.244Z,20.7
2016-09-21T15:30:12.240Z,20.6
2016-09-21T15:30:22.237Z,20.7
2016-09-21T15:30:32.231Z,20.7
2016-09-21T15:30:42.227Z,20.7
2016-09-21T15:30:52.222Z,20.7
2016-09-21T15:31:02.217Z,20.7
2016-09-21T15:31:12.213Z,20.7
2016-09-21T15:31:22.208Z,20.7
2016-09-21T15:31:32.204Z,20.7
2016-09-21T15:31:42.199Z,20.7
2016-09-21T15:31:52.195Z,20.7
2016-09-21T15:32:02.190Z,20.7
2016-09-21T15:32:12.185Z,20.6
2016-09-21T15:32:22.181Z,20.6
2016-09-21T15:32:32.183Z,20.6
2016-09-21T15:32:42.174Z,20.5
2016-09-21T15:32:52.178Z,20.6
2016-09-21T15:33:02.164Z,20.5
2016-09-21T15:33:12.158Z,20.5
2016-09-21T15:33:22.154Z,20.5
2016-09-21T15:33:32.150Z,20.6
2016-09-21T15:33:42.144Z,20.5
2016-09-21T15:33:52.140Z,20.5
2016-09-21T15:34:02.136Z,20.6
2016-09-21T15:34:12.131Z,20.5
2016-09-21T15:34:22.127Z,20.5
2016-09-21T15:34:32.121Z,20.5
2016-09-21T15:34:42.117Z,20.5
2016-09-21T15:34:52.111Z,20.5
2016-09-21T15:35:02.108Z,20.5
2016-09-21T15:35:12.104Z,20.4
2016-09-21T15:35:22.100Z,20.4
2016-09-21T15:35:32.094Z,20.5
2016-09-21T15:35:42.090Z,20.5
2016-09-21T15:35:52.085Z,20.5
2016-09-21T15:36:02.081Z,20.5
2016-09-21T15:36:12.076Z,20.5
2016-09-21T15:36:22.071Z,20.6
2016-09-21T15:36:32.067Z,20.5
2016-09-21T15:36:42.065Z,20.5
2016-09-21T15:36:52.058Z,20.4
2016-09-21T15:37:02.055Z,20.4
2016-09-21T15:37:12.049Z,20.4
2016-09-21T15:37:22.045Z,20.4
2016-09-21T15:37:32.040Z,20.4
2016-09-21T15:37:42.035Z,20.4
2016-09-21T15:37:52.030Z,20.4
2016-09-21T15:38:02.027Z,20.4
2016-09-21T15:38:12.021Z,20.4
2016-09-21T15:38:22.018Z,20.4